Time;durP1;ratioP1;P1;durP2;ratioP2;P2;SDS_P1;SDS_P2;PMS_P1;PMS_P2;Temp;Humidity;BMP_temperature;BMP_pressure;BME280_temperature;BME280_humidity;BME280_pressure;Samples;Min_cycle;Max_cycle;Signal;HPM_P1;HPM_P2
2023/12/21 00:01:45;;;;;;;3.17;1.50;;;;;;;;;;5086896;28;20423;-82
2023/12/21 00:04:12;;;;;;;2.90;1.55;;;;;;;;;;5086791;28;20411;-82
2023/12/21 00:06:38;;;;;;;2.63;1.33;;;;;;;;;;5086970;28;20376;-82
2023/12/21 00:09:06;;;;;;;3.40;1.42;;;;;;;;;;5086947;28;20408;-82
2023/12/21 00:11:32;;;;;;;3.08;1.35;;;;;;;;;;5085411;28;20423;-82
2023/12/21 00:13:59;;;;;;;2.97;1.40;;;;;;;;;;5087732;28;20524;-82
2023/12/21 00:16:25;;;;;;;1.90;1.30;;;;;;;;;;5087734;28;20372;-82
2023/12/21 00:18:51;;;;;;;2.78;1.30;;;;;;;;;;5087851;28;20390;-82
2023/12/21 00:21:17;;;;;;;2.80;1.20;;;;;;;;;;5087003;28;20383;-82
2023/12/21 00:23:43;;;;;;;1.83;1.23;;;;;;;;;;5087354;28;20423;-82
2023/12/21 00:26:09;;;;;;;2.33;1.17;;;;;;;;;;5086515;28;20376;-82
2023/12/21 00:28:35;;;;;;;2.30;1.10;;;;;;;;;;5085937;28;20396;-82
2023/12/21 00:31:02;;;;;;;1.60;1.10;;;;;;;;;;5086529;28;20470;-82
2023/12/21 00:33:28;;;;;;;3.30;1.20;;;;;;;;;;5085463;28;20458;-82
2023/12/21 00:35:54;;;;;;;2.28;1.30;;;;;;;;;;5086273;28;20397;-82
2023/12/21 00:38:20;;;;;;;3.72;1.20;;;;;;;;;;5086367;28;20400;-82
2023/12/21 00:40:46;;;;;;;3.58;1.25;;;;;;;;;;5087361;28;20789;-82
2023/12/21 00:43:12;;;;;;;3.80;1.40;;;;;;;;;;5086269;28;20398;-82
2023/12/21 00:45:38;;;;;;;2.28;1.17;;;;;;;;;;5088069;28;20860;-82
2023/12/21 00:48:04;;;;;;;1.58;0.98;;;;;;;;;;5086619;28;20419;-82
2023/12/21 00:50:30;;;;;;;2.25;1.10;;;;;;;;;;5068784;28;20404;-82
2023/12/21 00:52:56;;;;;;;1.95;1.10;;;;;;;;;;5087138;28;21069;-82
2023/12/21 00:55:22;;;;;;;1.88;1.17;;;;;;;;;;5084013;28;20377;-82
2023/12/21 00:57:48;;;;;;;1.88;1.27;;;;;;;;;;5086970;28;20368;-82
2023/12/21 01:00:15;;;;;;;2.22;1.10;;;;;;;;;;5085936;28;20387;-82
2023/12/21 01:02:41;;;;;;;1.77;1.00;;;;;;;;;;5086099;28;20762;-82
2023/12/21 01:05:07;;;;;;;3.15;1.00;;;;;;;;;;5086011;28;20477;-82
2023/12/21 01:07:33;;;;;;;2.73;1.20;;;;;;;;;;5086204;28;20518;-82
2023/12/21 01:09:59;;;;;;;2.30;1.10;;;;;;;;;;5085766;28;20411;-82
2023/12/21 01:12:25;;;;;;;2.03;0.80;;;;;;;;;;5086889;28;20407;-82
2023/12/21 01:14:51;;;;;;;2.70;0.93;;;;;;;;;;5086751;28;20368;-82
2023/12/21 01:17:17;;;;;;;2.15;1.38;;;;;;;;;;5085424;28;20390;-82
2023/12/21 01:19:43;;;;;;;1.92;1.00;;;;;;;;;;5086397;28;20435;-82
2023/12/21 01:22:09;;;;;;;1.98;0.90;;;;;;;;;;5081524;28;20720;-82
2023/12/21 01:24:35;;;;;;;1.17;0.90;;;;;;;;;;5066060;28;20396;-82
2023/12/21 01:27:01;;;;;;;3.42;0.90;;;;;;;;;;5065859;28;20416;-82
2023/12/21 01:29:27;;;;;;;2.20;1.07;;;;;;;;;;5063582;28;20412;-82
2023/12/21 01:31:53;;;;;;;2.22;0.80;;;;;;;;;;5066167;28;20390;-82
2023/12/21 01:34:19;;;;;;;2.08;0.90;;;;;;;;;;5065964;28;20400;-82
2023/12/21 01:36:45;;;;;;;2.42;0.90;;;;;;;;;;5066230;28;20373;-82
2023/12/21 01:39:11;;;;;;;2.30;0.90;;;;;;;;;;5065904;28;20392;-82
2023/12/21 01:41:37;;;;;;;2.30;0.77;;;;;;;;;;5066553;28;20385;-82
2023/12/21 01:44:03;;;;;;;2.65;0.90;;;;;;;;;;5066509;28;20859;-82
2023/12/21 01:46:30;;;;;;;0.83;0.60;;;;;;;;;;5066034;28;20468;-82
2023/12/21 01:48:56;;;;;;;1.95;0.90;;;;;;;;;;5065770;28;20504;-82
2023/12/21 01:51:22;;;;;;;2.75;1.00;;;;;;;;;;5066506;28;20385;-82
2023/12/21 01:53:50;;;;;;;1.37;0.87;;;;;;;;;;5061288;28;20377;-82
2023/12/21 01:56:18;;;;;;;1.58;0.90;;;;;;;;;;5083675;28;20383;-82
2023/12/21 01:58:44;;;;;;;1.42;0.80;;;;;;;;;;5086143;28;20420;-82
2023/12/21 02:01:10;;;;;;;2.15;1.00;;;;;;;;;;5087765;28;20388;-82
2023/12/21 02:03:38;;;;;;;2.10;1.00;;;;;;;;;;5090767;28;20376;-82
2023/12/21 02:06:04;;;;;;;1.70;0.90;;;;;;;;;;5072101;28;20395;-82
2023/12/21 02:08:30;;;;;;;2.42;1.00;;;;;;;;;;5090413;28;20391;-82
2023/12/21 02:10:57;;;;;;;1.60;0.90;;;;;;;;;;5090417;28;20386;-82
2023/12/21 02:13:23;;;;;;;2.20;0.85;;;;;;;;;;5088890;28;20380;-82
2023/12/21 02:15:49;;;;;;;1.33;0.80;;;;;;;;;;5088933;28;20390;-82
2023/12/21 02:18:16;;;;;;;1.30;0.80;;;;;;;;;;5089604;28;20871;-82
2023/12/21 02:20:43;;;;;;;1.55;0.90;;;;;;;;;;5088753;28;20903;-82
2023/12/21 02:23:10;;;;;;;2.03;0.80;;;;;;;;;;5089028;28;20443;-82
2023/12/21 02:25:36;;;;;;;1.90;0.80;;;;;;;;;;5087482;28;20376;-82
2023/12/21 02:28:02;;;;;;;1.60;0.70;;;;;;;;;;5089308;28;20384;-82
2023/12/21 02:30:28;;;;;;;2.10;0.83;;;;;;;;;;5089598;28;20472;-82
2023/12/21 02:32:54;;;;;;;2.40;1.00;;;;;;;;;;5088996;28;20840;-82
2023/12/21 02:35:20;;;;;;;1.60;0.70;;;;;;;;;;5090172;28;20384;-82
2023/12/21 02:37:46;;;;;;;1.45;0.57;;;;;;;;;;5090097;28;20517;-82
2023/12/21 02:40:12;;;;;;;1.45;0.77;;;;;;;;;;5089000;28;20741;-82
2023/12/21 02:42:38;;;;;;;1.20;0.70;;;;;;;;;;5088729;28;20394;-82
2023/12/21 02:45:04;;;;;;;1.02;0.80;;;;;;;;;;5088954;28;20384;-82
2023/12/21 02:47:30;;;;;;;1.73;0.70;;;;;;;;;;5088523;28;20778;-82
2023/12/21 02:49:56;;;;;;;1.73;0.90;;;;;;;;;;5088888;28;20404;-82
2023/12/21 02:52:22;;;;;;;1.77;0.90;;;;;;;;;;5088961;28;20446;-82
2023/12/21 02:54:48;;;;;;;1.58;0.70;;;;;;;;;;5088933;28;20399;-82
2023/12/21 02:57:14;;;;;;;1.95;0.70;;;;;;;;;;5088204;28;20407;-82
2023/12/21 02:59:43;;;;;;;1.50;0.80;;;;;;;;;;5088831;28;20380;-82
2023/12/21 03:02:09;;;;;;;3.15;0.77;;;;;;;;;;5087341;28;20383;-82
2023/12/21 03:04:36;;;;;;;2.22;0.70;;;;;;;;;;5089070;28;20394;-82
2023/12/21 03:07:02;;;;;;;2.47;1.00;;;;;;;;;;5089534;28;20379;-82
2023/12/21 03:09:28;;;;;;;2.60;0.95;;;;;;;;;;5088357;28;20433;-82
2023/12/21 03:11:54;;;;;;;0.98;0.77;;;;;;;;;;5087143;28;20377;-82
2023/12/21 03:14:22;;;;;;;1.83;1.10;;;;;;;;;;5087691;28;20375;-82
2023/12/21 03:16:48;;;;;;;1.05;0.80;;;;;;;;;;5086338;28;20415;-82
2023/12/21 03:19:14;;;;;;;1.27;0.68;;;;;;;;;;5069157;28;20998;-82
2023/12/21 03:21:40;;;;;;;1.60;1.00;;;;;;;;;;5069278;28;20397;-82
2023/12/21 03:24:07;;;;;;;1.40;0.70;;;;;;;;;;5068817;28;20393;-82
2023/12/21 03:26:33;;;;;;;1.60;0.80;;;;;;;;;;5051660;28;20437;-82
2023/12/21 03:28:59;;;;;;;1.77;0.98;;;;;;;;;;5069448;28;20454;-82
2023/12/21 03:31:25;;;;;;;0.82;0.70;;;;;;;;;;5069760;28;21052;-82
2023/12/21 03:33:51;;;;;;;2.00;0.90;;;;;;;;;;5068808;28;20381;-82
2023/12/21 03:36:17;;;;;;;1.45;0.80;;;;;;;;;;5068307;28;20394;-82
2023/12/21 03:38:43;;;;;;;1.73;0.70;;;;;;;;;;5069077;28;20374;-82
2023/12/21 03:41:09;;;;;;;1.58;0.90;;;;;;;;;;5068559;28;20385;-82
2023/12/21 03:43:35;;;;;;;1.05;0.75;;;;;;;;;;5069181;28;20412;-82
2023/12/21 03:46:01;;;;;;;1.70;0.80;;;;;;;;;;5069167;28;20382;-82
2023/12/21 03:48:27;;;;;;;2.20;0.70;;;;;;;;;;5068293;28;20420;-82
2023/12/21 03:50:54;;;;;;;1.40;0.73;;;;;;;;;;5068380;28;20901;-82
2023/12/21 03:53:20;;;;;;;1.80;0.70;;;;;;;;;;5067184;28;20389;-82
2023/12/21 03:55:46;;;;;;;1.63;0.82;;;;;;;;;;5067845;28;20424;-82
2023/12/21 03:58:12;;;;;;;1.73;1.00;;;;;;;;;;5076080;28;20388;-82
2023/12/21 04:00:38;;;;;;;3.23;1.40;;;;;;;;;;5087920;28;20826;-82
2023/12/21 04:03:04;;;;;;;3.28;1.50;;;;;;;;;;5086903;28;20391;-82
2023/12/21 04:05:30;;;;;;;2.22;2.00;;;;;;;;;;5087632;28;20811;-82
2023/12/21 04:07:56;;;;;;;2.88;1.98;;;;;;;;;;5087342;28;20383;-82
2023/12/21 04:10:21;;;;;;;2.17;1.95;;;;;;;;;;5086786;28;20536;-82
2023/12/21 04:12:47;;;;;;;4.10;3.70;;;;;;;;;;5086621;28;20384;-82
2023/12/21 04:15:15;;;;;;;4.70;3.65;;;;;;;;;;5088543;28;20379;-82
2023/12/21 04:17:41;;;;;;;4.22;3.50;;;;;;;;;;5086980;28;20406;-82
2023/12/21 04:20:07;;;;;;;4.40;4.00;;;;;;;;;;5087503;28;20395;-82
2023/12/21 04:22:33;;;;;;;5.20;4.28;;;;;;;;;;5086762;28;20772;-82
2023/12/21 04:24:59;;;;;;;4.80;4.30;;;;;;;;;;5086790;28;20380;-82
2023/12/21 04:27:28;;;;;;;5.10;4.40;;;;;;;;;;5086489;28;20395;-82
2023/12/21 04:29:54;;;;;;;5.03;4.53;;;;;;;;;;5086831;28;20483;-82
2023/12/21 04:32:20;;;;;;;4.90;4.47;;;;;;;;;;5086999;28;20368;-82
2023/12/21 04:34:46;;;;;;;4.82;4.05;;;;;;;;;;5087806;28;20426;-82
2023/12/21 04:37:12;;;;;;;4.60;4.10;;;;;;;;;;5087471;28;20387;-82
2023/12/21 04:39:38;;;;;;;4.28;3.88;;;;;;;;;;5087000;28;20860;-82
2023/12/21 04:42:04;;;;;;;4.68;4.18;;;;;;;;;;5087621;28;20407;-82
2023/12/21 04:44:30;;;;;;;4.90;4.40;;;;;;;;;;5068736;28;20388;-82
2023/12/21 04:46:56;;;;;;;4.88;4.28;;;;;;;;;;5086951;28;20394;-82
2023/12/21 04:49:24;;;;;;;5.00;4.28;;;;;;;;;;5086240;28;20420;-82
2023/12/21 04:51:50;;;;;;;4.57;3.75;;;;;;;;;;5086734;28;20380;-82
2023/12/21 04:54:16;;;;;;;5.10;4.15;;;;;;;;;;5087658;28;20380;-82
2023/12/21 04:56:42;;;;;;;4.32;3.90;;;;;;;;;;5086248;28;20436;-82
2023/12/21 04:59:09;;;;;;;4.00;3.60;;;;;;;;;;5086844;28;20394;-82
2023/12/21 05:01:35;;;;;;;3.75;3.40;;;;;;;;;;5087003;28;20380;-82
2023/12/21 05:04:04;;;;;;;4.95;3.88;;;;;;;;;;5085832;28;20388;-82
2023/12/21 05:06:30;;;;;;;3.67;3.37;;;;;;;;;;5083636;28;20420;-82
2023/12/21 05:08:56;;;;;;;3.95;3.55;;;;;;;;;;5085667;28;20414;-82
2023/12/21 05:11:22;;;;;;;3.40;3.10;;;;;;;;;;5082929;28;20888;-82
2023/12/21 05:13:48;;;;;;;3.72;2.70;;;;;;;;;;5064971;28;20472;-82
2023/12/21 05:16:14;;;;;;;3.30;3.00;;;;;;;;;;5065470;28;20377;-82
2023/12/21 05:18:41;;;;;;;3.40;2.50;;;;;;;;;;5047363;28;20889;-82
2023/12/21 05:21:09;;;;;;;2.90;2.50;;;;;;;;;;5065913;28;20965;-82
2023/12/21 05:23:35;;;;;;;2.92;2.30;;;;;;;;;;5068535;28;20381;-82
2023/12/21 05:26:01;;;;;;;2.90;2.60;;;;;;;;;;5066403;28;20413;-82
2023/12/21 05:28:27;;;;;;;2.67;2.25;;;;;;;;;;5064927;28;20385;-82
2023/12/21 05:30:53;;;;;;;2.75;2.45;;;;;;;;;;5066008;28;20412;-82
2023/12/21 05:33:19;;;;;;;3.40;2.10;;;;;;;;;;5065538;28;20385;-82
2023/12/21 05:35:45;;;;;;;1.90;1.75;;;;;;;;;;5068126;28;20382;-82
2023/12/21 05:38:11;;;;;;;2.70;1.85;;;;;;;;;;5068637;28;20897;-82
2023/12/21 05:40:37;;;;;;;2.10;1.70;;;;;;;;;;5068085;28;20389;-82
2023/12/21 05:43:03;;;;;;;1.80;1.60;;;;;;;;;;5067693;28;20393;-82
2023/12/21 05:45:29;;;;;;;1.70;1.60;;;;;;;;;;5063747;28;20842;-82
2023/12/21 05:47:58;;;;;;;2.42;1.60;;;;;;;;;;5065128;28;20413;-82
2023/12/21 05:50:24;;;;;;;1.95;1.75;;;;;;;;;;5075493;28;20434;-82
2023/12/21 05:52:51;;;;;;;1.63;1.42;;;;;;;;;;5086137;28;20386;-83
2023/12/21 05:55:17;;;;;;;1.53;1.30;;;;;;;;;;5089534;28;20387;-83
2023/12/21 05:57:46;;;;;;;2.58;1.40;;;;;;;;;;5071296;28;20387;-82
2023/12/21 06:00:12;;;;;;;1.25;1.15;;;;;;;;;;5088301;28;20387;-82
2023/12/21 06:02:38;;;;;;;2.67;1.45;;;;;;;;;;5089468;28;20383;-82
2023/12/21 06:05:04;;;;;;;2.28;1.30;;;;;;;;;;5089438;28;20376;-82
2023/12/21 06:07:30;;;;;;;1.80;1.10;;;;;;;;;;5070487;28;20384;-82
2023/12/21 06:09:56;;;;;;;1.50;1.10;;;;;;;;;;5090074;28;20411;-82
2023/12/21 06:12:23;;;;;;;1.42;1.20;;;;;;;;;;5089279;28;20384;-82
2023/12/21 06:14:49;;;;;;;1.42;1.25;;;;;;;;;;5071509;28;20384;-82
2023/12/21 06:17:15;;;;;;;2.00;1.30;;;;;;;;;;5089013;28;20455;-82
2023/12/21 06:19:44;;;;;;;1.75;1.33;;;;;;;;;;5089348;28;20384;-82
2023/12/21 06:22:10;;;;;;;3.90;1.20;;;;;;;;;;5072402;28;20383;-82
2023/12/21 06:24:36;;;;;;;1.23;0.90;;;;;;;;;;5087558;28;20395;-82
2023/12/21 06:27:02;;;;;;;1.02;0.93;;;;;;;;;;5088503;28;20395;-82
2023/12/21 06:29:28;;;;;;;1.55;1.10;;;;;;;;;;5087854;28;20889;-82
2023/12/21 06:31:54;;;;;;;1.30;1.10;;;;;;;;;;5088298;28;20386;-82
2023/12/21 06:34:21;;;;;;;1.77;1.40;;;;;;;;;;5086454;28;20871;-82
2023/12/21 06:36:47;;;;;;;1.67;0.90;;;;;;;;;;5088861;28;20791;-83
2023/12/21 06:39:13;;;;;;;1.75;0.70;;;;;;;;;;5089255;28;20391;-82
2023/12/21 06:41:39;;;;;;;2.60;1.80;;;;;;;;;;5089890;28;20383;-83
2023/12/21 06:44:05;;;;;;;1.27;0.80;;;;;;;;;;5069641;28;20391;-81
2023/12/21 06:46:31;;;;;;;1.70;0.70;;;;;;;;;;5071270;28;20399;-83
2023/12/21 06:48:57;;;;;;;0.73;0.70;;;;;;;;;;5068555;28;21078;-82
2023/12/21 06:51:23;;;;;;;1.20;0.55;;;;;;;;;;5088966;28;20380;-83
2023/12/21 06:53:49;;;;;;;1.00;0.70;;;;;;;;;;5089606;28;20372;-83
2023/12/21 06:56:17;;;;;;;0.70;0.53;;;;;;;;;;5089134;28;20406;-83
2023/12/21 06:58:43;;;;;;;0.93;0.57;;;;;;;;;;5089379;28;20405;-82
2023/12/21 07:01:10;;;;;;;2.75;0.43;;;;;;;;;;5089603;28;20460;-83
2023/12/21 07:03:36;;;;;;;0.90;0.40;;;;;;;;;;5090677;28;20387;-82
2023/12/21 07:06:02;;;;;;;0.60;0.40;;;;;;;;;;5090629;28;20547;-82
2023/12/21 07:08:28;;;;;;;0.63;0.30;;;;;;;;;;5092184;28;20376;-82
2023/12/21 07:10:54;;;;;;;0.40;0.32;;;;;;;;;;5073477;28;20781;-82
2023/12/21 07:13:20;;;;;;;0.98;0.52;;;;;;;;;;5090514;28;20445;-82
2023/12/21 07:15:46;;;;;;;1.40;0.55;;;;;;;;;;5091409;28;20396;-81
2023/12/21 07:18:12;;;;;;;0.68;0.40;;;;;;;;;;5090022;28;20394;-81
2023/12/21 07:20:38;;;;;;;0.68;0.40;;;;;;;;;;5072661;28;20870;-81
2023/12/21 07:23:04;;;;;;;1.00;0.40;;;;;;;;;;5071847;28;20396;-83
2023/12/21 07:25:31;;;;;;;1.20;0.40;;;;;;;;;;5069892;28;20400;-83
2023/12/21 07:27:57;;;;;;;0.52;0.32;;;;;;;;;;5071421;28;20390;-82
2023/12/21 07:30:23;;;;;;;0.40;0.30;;;;;;;;;;5071686;28;20409;-82
2023/12/21 07:32:49;;;;;;;0.50;0.30;;;;;;;;;;5070119;28;20385;-83
2023/12/21 07:35:15;;;;;;;0.98;0.30;;;;;;;;;;5070590;28;20637;-82
2023/12/21 07:37:41;;;;;;;0.93;0.28;;;;;;;;;;5070399;28;20378;-82
2023/12/21 07:40:07;;;;;;;0.90;0.40;;;;;;;;;;5071098;28;20408;-83
2023/12/21 07:42:33;;;;;;;1.52;0.40;;;;;;;;;;5069864;28;20389;-83
2023/12/21 07:44:59;;;;;;;0.30;0.30;;;;;;;;;;5052346;28;20483;-81
2023/12/21 07:47:25;;;;;;;0.40;0.20;;;;;;;;;;5070350;28;20453;-82
2023/12/21 07:49:55;;;;;;;0.73;0.22;;;;;;;;;;5070138;28;20416;-82
2023/12/21 07:52:21;;;;;;;0.73;0.30;;;;;;;;;;5070759;28;20373;-82
2023/12/21 07:54:47;;;;;;;0.70;0.30;;;;;;;;;;5085508;28;20364;-82
2023/12/21 07:57:14;;;;;;;0.80;0.20;;;;;;;;;;5070220;28;20376;-82
2023/12/21 07:59:40;;;;;;;1.75;0.30;;;;;;;;;;5087051;28;20865;-83
2023/12/21 08:02:06;;;;;;;0.57;0.20;;;;;;;;;;5067515;28;20431;-82
2023/12/21 08:04:32;;;;;;;0.97;0.20;;;;;;;;;;5065535;28;20983;-82
2023/12/21 08:06:59;;;;;;;0.40;0.20;;;;;;;;;;5089054;28;20383;-83
2023/12/21 08:09:25;;;;;;;0.70;0.30;;;;;;;;;;5087882;28;20407;-82
2023/12/21 08:11:51;;;;;;;0.40;0.30;;;;;;;;;;5070161;28;20372;-83
2023/12/21 08:14:17;;;;;;;0.35;0.30;;;;;;;;;;5070990;28;20392;-82
2023/12/21 08:16:43;;;;;;;1.27;0.40;;;;;;;;;;5071744;28;20486;-83
2023/12/21 08:19:10;;;;;;;0.30;0.20;;;;;;;;;;5087787;28;20438;-83
2023/12/21 08:21:36;;;;;;;0.70;0.30;;;;;;;;;;5089426;28;20404;-83
2023/12/21 08:24:03;;;;;;;0.73;0.20;;;;;;;;;;5085920;28;20414;-83
2023/12/21 08:26:29;;;;;;;0.30;0.28;;;;;;;;;;5084939;28;20380;-84
2023/12/21 08:28:55;;;;;;;0.45;0.30;;;;;;;;;;5086368;28;20405;-84
2023/12/21 08:31:25;;;;;;;0.40;0.40;;;;;;;;;;5087065;28;20439;-83
2023/12/21 08:33:51;;;;;;;0.80;0.30;;;;;;;;;;5084925;28;20376;-82
2023/12/21 08:36:17;;;;;;;0.65;0.40;;;;;;;;;;5083771;28;20376;-83
2023/12/21 08:38:43;;;;;;;0.40;0.28;;;;;;;;;;5080584;28;20866;-81
2023/12/21 08:41:09;;;;;;;1.38;0.30;;;;;;;;;;5086896;28;20380;-83
2023/12/21 08:43:36;;;;;;;1.10;0.30;;;;;;;;;;5086587;28;20394;-83
2023/12/21 08:46:03;;;;;;;0.22;0.20;;;;;;;;;;5086894;28;20391;-83
2023/12/21 08:48:29;;;;;;;0.25;0.20;;;;;;;;;;5086668;28;20408;-81
2023/12/21 08:50:55;;;;;;;0.30;0.20;;;;;;;;;;5084413;28;20449;-83
2023/12/21 08:53:21;;;;;;;0.53;0.20;;;;;;;;;;5085488;28;20384;-83
2023/12/21 08:55:48;;;;;;;0.38;0.20;;;;;;;;;;5084749;28;20383;-85
2023/12/21 08:58:14;;;;;;;0.35;0.30;;;;;;;;;;5081553;28;20395;-84
2023/12/21 09:00:40;;;;;;;0.47;0.40;;;;;;;;;;5083782;28;20384;-85
2023/12/21 09:03:06;;;;;;;0.52;0.47;;;;;;;;;;5081905;28;20380;-86
2023/12/21 09:05:32;;;;;;;0.70;0.33;;;;;;;;;;5066880;28;20831;-85
2023/12/21 09:07:58;;;;;;;0.52;0.50;;;;;;;;;;5082886;28;20387;-85
2023/12/21 09:10:24;;;;;;;0.57;0.32;;;;;;;;;;5086443;28;20467;-83
2023/12/21 09:12:50;;;;;;;0.77;0.30;;;;;;;;;;5070730;28;20453;-83
2023/12/21 09:15:16;;;;;;;0.20;0.20;;;;;;;;;;5082832;28;20375;-84
2023/12/21 09:17:42;;;;;;;0.20;0.20;;;;;;;;;;5082973;28;20392;-83
2023/12/21 09:20:09;;;;;;;0.65;0.30;;;;;;;;;;5067536;28;20463;-83
2023/12/21 09:22:36;;;;;;;0.80;0.38;;;;;;;;;;5084993;28;20393;-84
2023/12/21 09:25:02;;;;;;;1.20;0.40;;;;;;;;;;5086842;28;20892;-83
2023/12/21 09:27:30;;;;;;;0.75;0.40;;;;;;;;;;5086153;28;20383;-83
2023/12/21 09:29:57;;;;;;;0.88;0.40;;;;;;;;;;5087270;28;20400;-83
2023/12/21 09:32:23;;;;;;;0.50;0.40;;;;;;;;;;5086486;28;20444;-82
2023/12/21 09:34:49;;;;;;;0.60;0.28;;;;;;;;;;5084413;28;20383;-84
2023/12/21 09:37:16;;;;;;;0.60;0.30;;;;;;;;;;5083494;28;20391;-82
2023/12/21 09:39:42;;;;;;;2.08;0.40;;;;;;;;;;5084184;28;20395;-81
2023/12/21 09:42:10;;;;;;;1.38;0.43;;;;;;;;;;5063416;28;20438;-82
2023/12/21 09:44:37;;;;;;;0.88;0.65;;;;;;;;;;5084744;28;20466;-83
2023/12/21 09:47:07;;;;;;;0.85;0.30;;;;;;;;;;5081447;28;20425;-83
2023/12/21 09:49:37;;;;;;;0.68;0.40;;;;;;;;;;5085195;28;21095;-82
2023/12/21 09:52:08;;;;;;;0.40;0.40;;;;;;;;;;5085737;28;20862;-82
2023/12/21 09:54:38;;;;;;;0.40;0.40;;;;;;;;;;5085495;28;20443;-82
2023/12/21 09:57:05;;;;;;;1.05;0.30;;;;;;;;;;5085650;28;20404;-82
2023/12/21 09:59:34;;;;;;;0.85;0.40;;;;;;;;;;5084973;28;20386;-82
2023/12/21 10:02:00;;;;;;;0.80;0.30;;;;;;;;;;5085275;28;20379;-81
2023/12/21 10:04:27;;;;;;;0.28;0.20;;;;;;;;;;5085111;28;20379;-83
2023/12/21 10:06:53;;;;;;;0.50;0.30;;;;;;;;;;5083762;28;20390;-84
2023/12/21 10:09:19;;;;;;;0.30;0.20;;;;;;;;;;5084948;28;20837;-82
2023/12/21 10:11:45;;;;;;;0.30;0.20;;;;;;;;;;5084058;28;20376;-82
2023/12/21 10:14:21;;;;;;;0.30;0.30;;;;;;;;;;5085275;28;20384;-82
2023/12/21 10:16:47;;;;;;;0.28;0.28;;;;;;;;;;5085871;28;20379;-82
2023/12/21 10:19:13;;;;;;;0.30;0.20;;;;;;;;;;5067789;28;20471;-83
2023/12/21 10:21:42;;;;;;;0.32;0.20;;;;;;;;;;5087312;28;20372;-82
2023/12/21 10:24:10;;;;;;;2.10;0.30;;;;;;;;;;5088437;28;20876;-82
2023/12/21 10:26:46;;;;;;;0.95;0.20;;;;;;;;;;5085983;28;20446;-81
2023/12/21 10:29:15;;;;;;;0.40;0.30;;;;;;;;;;5085840;28;20419;-82
2023/12/21 10:31:48;;;;;;;0.73;0.30;;;;;;;;;;5088510;28;20439;-82
2023/12/21 10:34:17;;;;;;;1.10;0.30;;;;;;;;;;5088579;28;20379;-81
2023/12/21 10:36:44;;;;;;;1.70;0.30;;;;;;;;;;5089611;28;20392;-82
2023/12/21 10:39:17;;;;;;;0.80;0.30;;;;;;;;;;5071649;28;20384;-82
2023/12/21 10:41:43;;;;;;;0.60;0.43;;;;;;;;;;5089793;28;20387;-82
2023/12/21 10:44:10;;;;;;;0.90;0.40;;;;;;;;;;5089257;28;20376;-82
2023/12/21 10:46:38;;;;;;;0.60;0.50;;;;;;;;;;5089070;28;20782;-82
2023/12/21 10:49:06;;;;;;;1.92;0.50;;;;;;;;;;5088981;28;20453;-82
2023/12/21 10:51:36;;;;;;;0.40;0.40;;;;;;;;;;5071814;28;21271;-81
2023/12/21 10:54:02;;;;;;;1.05;0.50;;;;;;;;;;5089200;28;20384;-82
2023/12/21 10:56:28;;;;;;;0.60;0.50;;;;;;;;;;5088577;28;20376;-82
2023/12/21 10:58:55;;;;;;;0.70;0.43;;;;;;;;;;5089724;28;20433;-82
2023/12/21 11:01:24;;;;;;;0.40;0.30;;;;;;;;;;5090072;28;20412;-83
2023/12/21 11:03:50;;;;;;;0.60;0.40;;;;;;;;;;5090333;28;20833;-83
2023/12/21 11:06:16;;;;;;;0.63;0.38;;;;;;;;;;5091330;28;20372;-82
2023/12/21 11:08:51;;;;;;;1.20;0.40;;;;;;;;;;5091666;28;20399;-82
2023/12/21 11:11:22;;;;;;;0.70;0.40;;;;;;;;;;5090550;28;20856;-83
2023/12/21 11:13:52;;;;;;;0.88;0.40;;;;;;;;;;5090917;28;20379;-83
2023/12/21 11:16:20;;;;;;;1.50;0.60;;;;;;;;;;5090981;28;20375;-81
2023/12/21 11:18:47;;;;;;;0.80;0.40;;;;;;;;;;5089721;28;20935;-82
2023/12/21 11:21:14;;;;;;;0.50;0.50;;;;;;;;;;5090250;28;20380;-82
2023/12/21 11:23:44;;;;;;;0.68;0.45;;;;;;;;;;5089987;28;20738;-82
2023/12/21 11:26:11;;;;;;;0.60;0.50;;;;;;;;;;5089205;28;20372;-82
2023/12/21 11:28:38;;;;;;;1.70;0.50;;;;;;;;;;5090403;28;20436;-82
2023/12/21 11:31:21;;;;;;;0.35;0.35;;;;;;;;;;5090338;28;20400;-82
2023/12/21 11:33:47;;;;;;;0.60;0.60;;;;;;;;;;5089473;28;20391;-82
2023/12/21 11:36:31;;;;;;;1.40;0.90;;;;;;;;;;5089361;28;20403;-83
2023/12/21 11:38:58;;;;;;;1.08;0.88;;;;;;;;;;5072391;28;20387;-82
2023/12/21 11:41:24;;;;;;;1.10;0.80;;;;;;;;;;5089414;28;20399;-81
2023/12/21 11:44:03;;;;;;;0.60;0.60;;;;;;;;;;5090101;28;20383;-83
2023/12/21 11:46:32;;;;;;;1.17;0.90;;;;;;;;;;5090074;28;20376;-82
2023/12/21 11:48:58;;;;;;;1.17;0.90;;;;;;;;;;5071037;28;20420;-81
2023/12/21 11:51:25;;;;;;;1.20;0.70;;;;;;;;;;5089200;28;20392;-82
2023/12/21 11:53:51;;;;;;;1.38;0.80;;;;;;;;;;5089170;28;20762;-82
2023/12/21 11:56:17;;;;;;;0.70;0.70;;;;;;;;;;5089735;28;20390;-82
2023/12/21 11:58:43;;;;;;;0.70;0.70;;;;;;;;;;5088272;28;20865;-83
2023/12/21 12:01:20;;;;;;;0.68;0.60;;;;;;;;;;5089062;28;20440;-81
2023/12/21 12:03:47;;;;;;;0.63;0.60;;;;;;;;;;5086742;28;20391;-81
2023/12/21 12:06:13;;;;;;;1.07;0.70;;;;;;;;;;5088262;28;20384;-82
2023/12/21 12:08:42;;;;;;;0.90;0.60;;;;;;;;;;5087544;28;20387;-82
2023/12/21 12:11:09;;;;;;;1.40;0.70;;;;;;;;;;5089364;28;20486;-82
2023/12/21 12:13:35;;;;;;;0.75;0.50;;;;;;;;;;5069954;28;20376;-82
2023/12/21 12:16:01;;;;;;;0.45;0.45;;;;;;;;;;5078979;28;20379;-82
2023/12/21 12:18:27;;;;;;;1.00;0.50;;;;;;;;;;5077325;28;21237;-82
2023/12/21 12:20:53;;;;;;;1.00;0.73;;;;;;;;;;5077494;28;20474;-83
2023/12/21 12:23:19;;;;;;;0.55;0.50;;;;;;;;;;5077670;28;20383;-81
2023/12/21 12:25:45;;;;;;;0.80;0.60;;;;;;;;;;5060178;28;20898;-82
2023/12/21 12:28:11;;;;;;;0.95;0.73;;;;;;;;;;5077363;28;20388;-82
2023/12/21 12:30:38;;;;;;;1.60;0.70;;;;;;;;;;5077527;28;20415;-82
2023/12/21 12:33:05;;;;;;;1.00;0.77;;;;;;;;;;5077210;28;20990;-82
2023/12/21 12:35:35;;;;;;;0.88;0.60;;;;;;;;;;5085940;28;20733;-81
2023/12/21 12:38:01;;;;;;;1.10;0.63;;;;;;;;;;5087403;28;20433;-81
2023/12/21 12:40:27;;;;;;;0.65;0.50;;;;;;;;;;5087720;28;20390;-81
2023/12/21 12:42:53;;;;;;;1.00;0.52;;;;;;;;;;5086974;28;20382;-82
2023/12/21 12:45:19;;;;;;;1.20;0.80;;;;;;;;;;5086149;28;20382;-81
2023/12/21 12:47:45;;;;;;;0.88;0.73;;;;;;;;;;5086153;28;20422;-80
2023/12/21 12:50:11;;;;;;;0.65;0.65;;;;;;;;;;5086822;28;20885;-81
2023/12/21 12:52:41;;;;;;;0.70;0.70;;;;;;;;;;5087322;28;20837;-81
2023/12/21 12:55:18;;;;;;;0.52;0.50;;;;;;;;;;5088077;28;20402;-81
2023/12/21 12:57:48;;;;;;;0.55;0.52;;;;;;;;;;5086374;28;20880;-81
2023/12/21 13:00:20;;;;;;;0.85;0.70;;;;;;;;;;5068883;28;20471;-82
2023/12/21 13:02:47;;;;;;;0.60;0.50;;;;;;;;;;5087833;28;20389;-81
2023/12/21 13:05:15;;;;;;;0.40;0.40;;;;;;;;;;5088541;28;20478;-82
2023/12/21 13:07:42;;;;;;;0.50;0.50;;;;;;;;;;5087920;28;20360;-81
2023/12/21 13:10:09;;;;;;;1.10;0.50;;;;;;;;;;5088199;28;20411;-80
2023/12/21 13:12:35;;;;;;;1.25;0.60;;;;;;;;;;5087460;28;20407;-81
2023/12/21 13:15:01;;;;;;;0.57;0.50;;;;;;;;;;5085413;28;20868;-81
2023/12/21 13:17:29;;;;;;;0.85;0.50;;;;;;;;;;5086899;28;20384;-82
2023/12/21 13:19:55;;;;;;;1.00;0.50;;;;;;;;;;5086687;28;20384;-82
2023/12/21 13:22:21;;;;;;;0.98;0.40;;;;;;;;;;5087454;28;20378;-82
2023/12/21 13:24:47;;;;;;;0.57;0.50;;;;;;;;;;5087634;28;20415;-82
2023/12/21 13:27:13;;;;;;;1.10;0.60;;;;;;;;;;5087149;28;20391;-83
2023/12/21 13:29:39;;;;;;;2.40;0.50;;;;;;;;;;5087430;28;20900;-81
2023/12/21 13:32:06;;;;;;;0.82;0.70;;;;;;;;;;5087483;28;20371;-81
2023/12/21 13:34:32;;;;;;;0.60;0.60;;;;;;;;;;5086989;28;20460;-80
2023/12/21 13:36:58;;;;;;;0.50;0.50;;;;;;;;;;5085956;28;20380;-81
2023/12/21 13:39:27;;;;;;;1.20;0.70;;;;;;;;;;5085967;28;20433;-82
2023/12/21 13:41:54;;;;;;;1.10;0.60;;;;;;;;;;5083835;28;20409;-81
2023/12/21 13:44:20;;;;;;;1.45;1.20;;;;;;;;;;5085771;28;20466;-81
2023/12/21 13:46:46;;;;;;;1.00;0.70;;;;;;;;;;5087162;28;20429;-82
2023/12/21 13:49:12;;;;;;;1.00;0.50;;;;;;;;;;5086440;28;20457;-81
2023/12/21 13:51:38;;;;;;;0.60;0.50;;;;;;;;;;5087018;28;20443;-82
2023/12/21 13:54:05;;;;;;;0.70;0.40;;;;;;;;;;5085665;28;20387;-82
2023/12/21 13:56:31;;;;;;;0.50;0.50;;;;;;;;;;5087079;28;20556;-81
2023/12/21 13:58:57;;;;;;;0.80;0.38;;;;;;;;;;5087901;28;20399;-81
2023/12/21 14:01:23;;;;;;;1.02;0.50;;;;;;;;;;5079649;28;20397;-82
2023/12/21 14:03:55;;;;;;;1.02;0.50;;;;;;;;;;5076905;28;20924;-81
2023/12/21 14:06:21;;;;;;;1.10;0.85;;;;;;;;;;5068746;28;20378;-80
2023/12/21 14:08:46;;;;;;;0.70;0.40;;;;;;;;;;5082872;28;20441;-82
2023/12/21 14:11:13;;;;;;;0.60;0.30;;;;;;;;;;5083324;28;20400;-80
2023/12/21 14:13:39;;;;;;;0.40;0.40;;;;;;;;;;5088457;28;20406;-81
2023/12/21 14:16:05;;;;;;;0.80;0.35;;;;;;;;;;5089236;28;20372;-81
2023/12/21 14:18:32;;;;;;;0.50;0.38;;;;;;;;;;5089210;28;20809;-81
2023/12/21 14:20:58;;;;;;;0.70;0.50;;;;;;;;;;5088994;28;20376;-81
2023/12/21 14:23:24;;;;;;;0.30;0.30;;;;;;;;;;5087354;28;20394;-81
2023/12/21 14:25:50;;;;;;;0.88;0.40;;;;;;;;;;5088128;28;20388;-81
2023/12/21 14:28:16;;;;;;;0.60;0.40;;;;;;;;;;5086532;28;20372;-81
2023/12/21 14:30:43;;;;;;;0.60;0.40;;;;;;;;;;5088600;28;20443;-81
2023/12/21 14:33:09;;;;;;;0.60;0.40;;;;;;;;;;5089143;28;20455;-81
2023/12/21 14:35:35;;;;;;;0.52;0.52;;;;;;;;;;5088821;28;20376;-81
2023/12/21 14:38:03;;;;;;;0.90;0.55;;;;;;;;;;5088967;28;20390;-82
2023/12/21 14:40:29;;;;;;;1.00;0.50;;;;;;;;;;5088853;28;20378;-81